Time;durP1;ratioP1;P1;durP2;ratioP2;P2;SDS_P1;SDS_P2;PMS_P1;PMS_P2;Temp;Humidity;BMP_temperature;BMP_pressure;BME280_temperature;BME280_humidity;BME280_pressure;Samples;Min_cycle;Max_cycle;Signal;HPM_P1;HPM_P2
2022/06/24 00:00:12;;;;;;;7.83;7.17;;;;;;;;;;5092850;28;20450;-74
2022/06/24 00:02:40;;;;;;;6.00;5.40;;;;;;;;;;5093234;28;20446;-74
2022/06/24 00:05:09;;;;;;;6.77;6.27;;;;;;;;;;5092479;28;21080;-74
2022/06/24 00:07:45;;;;;;;9.33;8.47;;;;;;;;;;5092890;28;20584;-74
2022/06/24 00:10:13;;;;;;;7.83;7.00;;;;;;;;;;5092629;28;20450;-74
2022/06/24 00:12:40;;;;;;;8.63;7.83;;;;;;;;;;5092822;28;20603;-74
2022/06/24 00:15:09;;;;;;;8.87;7.60;;;;;;;;;;5092607;28;20454;-74
2022/06/24 00:17:36;;;;;;;8.00;7.30;;;;;;;;;;5092793;28;20789;-74
2022/06/24 00:20:05;;;;;;;9.20;8.20;;;;;;;;;;5095756;28;20454;-74
2022/06/24 00:22:33;;;;;;;10.23;8.90;;;;;;;;;;5096531;28;20466;-74
2022/06/24 00:25:10;;;;;;;8.93;8.03;;;;;;;;;;5096226;28;20956;-74
2022/06/24 00:27:38;;;;;;;8.83;7.60;;;;;;;;;;5096654;28;20458;-74
2022/06/24 00:30:10;;;;;;;8.40;7.63;;;;;;;;;;5096527;28;20450;-74
2022/06/24 00:32:38;;;;;;;13.10;8.57;;;;;;;;;;5096234;28;20490;-74
2022/06/24 00:35:05;;;;;;;8.20;7.33;;;;;;;;;;5095994;28;20787;-74
2022/06/24 00:37:33;;;;;;;8.63;7.90;;;;;;;;;;5096245;28;20469;-74
2022/06/24 00:40:01;;;;;;;10.63;9.17;;;;;;;;;;5096329;28;20473;-74
2022/06/24 00:42:28;;;;;;;8.50;7.83;;;;;;;;;;5095945;28;20466;-74
2022/06/24 00:45:02;;;;;;;8.80;7.97;;;;;;;;;;5095885;28;20455;-74
2022/06/24 00:47:31;;;;;;;8.03;7.33;;;;;;;;;;5096009;28;20446;-74
2022/06/24 00:50:01;;;;;;;10.83;7.47;;;;;;;;;;5095999;28;20457;-74
2022/06/24 00:52:28;;;;;;;8.00;7.20;;;;;;;;;;5095272;28;20605;-74
2022/06/24 00:54:55;;;;;;;11.73;7.57;;;;;;;;;;5095812;28;20455;-74
2022/06/24 00:57:23;;;;;;;8.50;7.60;;;;;;;;;;5095836;28;20823;-74
2022/06/24 00:59:50;;;;;;;10.70;7.20;;;;;;;;;;5095835;28;20446;-74
2022/06/24 01:02:17;;;;;;;10.63;8.03;;;;;;;;;;5095449;28;20537;-74
2022/06/24 01:04:46;;;;;;;10.03;8.40;;;;;;;;;;5095535;28;20454;-75
2022/06/24 01:07:13;;;;;;;11.50;9.00;;;;;;;;;;5095663;28;20462;-74
2022/06/24 01:09:40;;;;;;;9.43;8.63;;;;;;;;;;5095752;28;20446;-74
2022/06/24 01:12:08;;;;;;;11.60;8.90;;;;;;;;;;5095321;28;20479;-74
2022/06/24 01:14:35;;;;;;;11.00;9.90;;;;;;;;;;5095241;28;20450;-74
2022/06/24 01:17:04;;;;;;;10.10;9.10;;;;;;;;;;5095503;28;20928;-74
2022/06/24 01:19:31;;;;;;;9.27;8.43;;;;;;;;;;5095518;28;20542;-74
2022/06/24 01:21:59;;;;;;;10.47;9.20;;;;;;;;;;5095536;28;20473;-74
2022/06/24 01:24:26;;;;;;;8.87;8.07;;;;;;;;;;5095224;28;20479;-74
2022/06/24 01:26:54;;;;;;;11.37;8.43;;;;;;;;;;5095307;28;20457;-74
2022/06/24 01:29:21;;;;;;;9.27;7.10;;;;;;;;;;5095010;28;20874;-74
2022/06/24 01:31:49;;;;;;;8.93;7.20;;;;;;;;;;5094944;28;20497;-74
2022/06/24 01:34:17;;;;;;;7.87;7.07;;;;;;;;;;5094919;28;20451;-74
2022/06/24 01:36:44;;;;;;;8.30;7.13;;;;;;;;;;5095215;28;20451;-74
2022/06/24 01:39:13;;;;;;;8.80;6.97;;;;;;;;;;5095050;28;20525;-74
2022/06/24 01:41:40;;;;;;;6.13;5.30;;;;;;;;;;5095015;28;20979;-74
2022/06/24 01:44:07;;;;;;;7.17;6.23;;;;;;;;;;5094770;28;20928;-74
2022/06/24 01:46:34;;;;;;;10.73;6.27;;;;;;;;;;5095151;28;20454;-74
2022/06/24 01:49:02;;;;;;;9.07;6.60;;;;;;;;;;5094781;28;20450;-74
2022/06/24 01:51:30;;;;;;;7.90;7.03;;;;;;;;;;5094858;28;20478;-74
2022/06/24 01:53:57;;;;;;;8.03;5.77;;;;;;;;;;5093960;28;20854;-74
2022/06/24 01:56:25;;;;;;;9.50;6.47;;;;;;;;;;5094507;28;20928;-74
2022/06/24 01:58:52;;;;;;;11.73;6.17;;;;;;;;;;5094758;28;20797;-74
2022/06/24 02:01:19;;;;;;;10.10;7.13;;;;;;;;;;5094787;28;20466;-74
2022/06/24 02:03:47;;;;;;;15.43;8.10;;;;;;;;;;5094328;28;20451;-74
2022/06/24 02:06:14;;;;;;;12.30;6.30;;;;;;;;;;5094606;28;20453;-74
2022/06/24 02:08:42;;;;;;;12.57;7.30;;;;;;;;;;5094565;28;20462;-74
2022/06/24 02:13:57;;;;;;;8.40;7.17;;;;;;;;;;5094224;28;20852;-74
2022/06/24 02:16:24;;;;;;;16.03;6.30;;;;;;;;;;5094297;28;20447;-74
2022/06/24 02:18:52;;;;;;;6.67;5.87;;;;;;;;;;5094239;28;20451;-74
2022/06/24 02:21:20;;;;;;;5.30;4.20;;;;;;;;;;5093992;28;20941;-74
2022/06/24 02:23:48;;;;;;;5.70;3.60;;;;;;;;;;5094166;28;20462;-74
2022/06/24 02:26:15;;;;;;;4.70;3.67;;;;;;;;;;5094044;28;20463;-74
2022/06/24 02:28:42;;;;;;;5.87;3.27;;;;;;;;;;5094136;28;20830;-74
2022/06/24 02:31:11;;;;;;;7.40;3.90;;;;;;;;;;5094058;28;20481;-74
2022/06/24 02:33:38;;;;;;;6.57;3.30;;;;;;;;;;5093964;28;20487;-73
2022/06/24 02:36:05;;;;;;;4.20;2.67;;;;;;;;;;5093748;28;20450;-73
2022/06/24 02:38:34;;;;;;;3.40;2.43;;;;;;;;;;5093836;28;20458;-74
2022/06/24 02:41:01;;;;;;;4.37;2.20;;;;;;;;;;5093257;28;20475;-74
2022/06/24 02:43:29;;;;;;;4.43;2.47;;;;;;;;;;5093718;28;21068;-73
2022/06/24 02:45:58;;;;;;;6.30;2.43;;;;;;;;;;5093849;28;20459;-74
2022/06/24 02:48:27;;;;;;;2.67;2.17;;;;;;;;;;5093577;28;20936;-74
2022/06/24 02:50:55;;;;;;;6.77;2.73;;;;;;;;;;5093801;28;20474;-74
2022/06/24 02:53:23;;;;;;;3.67;2.83;;;;;;;;;;5093179;28;20490;-73
2022/06/24 02:55:51;;;;;;;3.10;2.13;;;;;;;;;;5093669;28;20451;-74
2022/06/24 02:58:18;;;;;;;3.50;2.17;;;;;;;;;;5093596;28;20446;-74
2022/06/24 03:00:45;;;;;;;4.27;2.80;;;;;;;;;;5093373;28;20483;-74
2022/06/24 03:03:13;;;;;;;4.87;2.00;;;;;;;;;;5093480;28;20447;-74
2022/06/24 03:05:42;;;;;;;5.93;2.13;;;;;;;;;;5093391;28;20828;-73
2022/06/24 03:08:10;;;;;;;2.10;1.80;;;;;;;;;;5093519;28;20478;-73
2022/06/24 03:10:37;;;;;;;5.83;1.90;;;;;;;;;;5093451;28;20477;-73
2022/06/24 03:13:05;;;;;;;4.67;2.57;;;;;;;;;;5093293;28;20482;-73
2022/06/24 03:15:32;;;;;;;3.53;2.03;;;;;;;;;;5093216;28;20455;-73
2022/06/24 03:17:59;;;;;;;3.80;1.57;;;;;;;;;;5093375;28;20451;-73
2022/06/24 03:20:27;;;;;;;4.23;1.80;;;;;;;;;;5093153;28;20451;-74
2022/06/24 03:22:55;;;;;;;6.53;2.43;;;;;;;;;;5093532;28;20513;-74
2022/06/24 03:25:22;;;;;;;4.93;1.90;;;;;;;;;;5092887;28;20462;-73
2022/06/24 03:27:49;;;;;;;3.03;1.47;;;;;;;;;;5093316;28;20951;-74
2022/06/24 03:30:20;;;;;;;3.97;1.97;;;;;;;;;;5093044;28;20455;-74
2022/06/24 03:32:47;;;;;;;6.40;2.20;;;;;;;;;;5093417;28;21053;-74
2022/06/24 03:35:14;;;;;;;3.57;1.53;;;;;;;;;;5092811;28;20842;-74
2022/06/24 03:37:41;;;;;;;7.70;2.17;;;;;;;;;;5093112;28;20967;-74
2022/06/24 03:40:11;;;;;;;4.57;1.60;;;;;;;;;;5093076;28;20457;-74
2022/06/24 03:42:38;;;;;;;5.70;2.30;;;;;;;;;;5092996;28;20467;-74
2022/06/24 03:45:06;;;;;;;1.60;1.50;;;;;;;;;;5092710;28;20473;-74
2022/06/24 03:47:33;;;;;;;4.10;1.97;;;;;;;;;;5093062;28;20450;-74
2022/06/24 03:50:00;;;;;;;3.10;2.80;;;;;;;;;;5093214;28;20454;-74
2022/06/24 03:52:27;;;;;;;5.50;1.43;;;;;;;;;;5092930;28;20525;-74
2022/06/24 03:54:54;;;;;;;2.17;1.47;;;;;;;;;;5096955;28;20450;-74
2022/06/24 03:57:23;;;;;;;2.50;1.57;;;;;;;;;;5097016;28;20451;-74
2022/06/24 03:59:50;;;;;;;3.00;1.40;;;;;;;;;;5097017;28;20940;-74
2022/06/24 04:02:18;;;;;;;4.77;1.60;;;;;;;;;;5096752;28;20475;-74
2022/06/24 04:04:45;;;;;;;5.10;1.70;;;;;;;;;;5096827;28;20553;-73
2022/06/24 04:07:12;;;;;;;2.30;1.50;;;;;;;;;;5096779;28;20450;-73
2022/06/24 04:09:40;;;;;;;3.47;1.63;;;;;;;;;;5096769;28;20469;-73
2022/06/24 04:12:07;;;;;;;3.00;1.90;;;;;;;;;;5096570;28;20983;-73
2022/06/24 04:17:20;;;;;;;4.30;1.87;;;;;;;;;;5096691;28;20458;-73
2022/06/24 04:19:47;;;;;;;2.70;1.83;;;;;;;;;;5096824;28;20454;-74
2022/06/24 04:22:15;;;;;;;5.93;1.70;;;;;;;;;;5096394;28;20975;-74
2022/06/24 04:24:42;;;;;;;4.63;1.70;;;;;;;;;;5096202;28;20545;-73
2022/06/24 04:27:09;;;;;;;4.13;1.43;;;;;;;;;;5096738;28;20469;-74
2022/06/24 04:29:38;;;;;;;5.50;2.47;;;;;;;;;;5096408;28;20451;-74
2022/06/24 04:32:05;;;;;;;2.40;1.73;;;;;;;;;;5096354;28;20831;-74
2022/06/24 04:34:32;;;;;;;4.50;1.67;;;;;;;;;;5096042;28;20490;-74
2022/06/24 04:36:59;;;;;;;5.97;1.60;;;;;;;;;;5096199;28;20454;-74
2022/06/24 04:39:26;;;;;;;4.60;2.30;;;;;;;;;;5096205;28;20446;-74
2022/06/24 04:41:54;;;;;;;2.10;1.30;;;;;;;;;;5096153;28;20466;-74
2022/06/24 04:44:21;;;;;;;5.40;1.50;;;;;;;;;;5096190;28;20928;-73
2022/06/24 04:46:50;;;;;;;5.33;1.87;;;;;;;;;;5096235;28;20490;-74
2022/06/24 04:49:17;;;;;;;3.93;1.60;;;;;;;;;;5095851;28;20450;-74
2022/06/24 04:51:44;;;;;;;5.50;2.10;;;;;;;;;;5095932;28;20979;-74
2022/06/24 04:54:11;;;;;;;3.70;1.37;;;;;;;;;;5095270;28;20490;-74
2022/06/24 04:56:38;;;;;;;3.40;1.60;;;;;;;;;;5096014;28;20450;-73
2022/06/24 04:59:05;;;;;;;3.13;1.50;;;;;;;;;;5096020;28;20449;-73
2022/06/24 05:01:32;;;;;;;3.50;1.50;;;;;;;;;;5095710;28;20463;-74
2022/06/24 05:04:02;;;;;;;3.00;1.30;;;;;;;;;;5095335;28;20469;-74
2022/06/24 05:06:29;;;;;;;1.70;1.20;;;;;;;;;;5095788;28;20457;-73
2022/06/24 05:08:56;;;;;;;2.50;1.63;;;;;;;;;;5095680;28;20447;-74
2022/06/24 05:11:23;;;;;;;2.40;1.73;;;;;;;;;;5095611;28;20466;-74
2022/06/24 05:13:50;;;;;;;7.17;2.30;;;;;;;;;;5095398;28;20487;-74
2022/06/24 05:16:17;;;;;;;2.87;2.00;;;;;;;;;;5095385;28;20478;-74
2022/06/24 05:18:44;;;;;;;3.70;2.20;;;;;;;;;;5095390;28;20451;-74
2022/06/24 05:21:13;;;;;;;3.70;1.33;;;;;;;;;;5095340;28;20477;-74
2022/06/24 05:23:40;;;;;;;3.97;1.23;;;;;;;;;;5095027;28;20458;-74
2022/06/24 05:26:07;;;;;;;3.33;1.40;;;;;;;;;;5095269;28;20842;-74
2022/06/24 05:28:35;;;;;;;4.90;1.53;;;;;;;;;;5094399;28;20463;-74
2022/06/24 05:31:02;;;;;;;3.03;1.37;;;;;;;;;;5094486;28;20466;-74
2022/06/24 05:33:30;;;;;;;2.83;1.50;;;;;;;;;;5094823;28;20482;-74
2022/06/24 05:35:58;;;;;;;3.20;1.50;;;;;;;;;;5095278;28;20496;-74
2022/06/24 05:38:27;;;;;;;4.63;1.60;;;;;;;;;;5094781;28;20546;-74
2022/06/24 05:40:54;;;;;;;5.33;1.87;;;;;;;;;;5094880;28;20480;-74
2022/06/24 05:43:21;;;;;;;4.47;1.50;;;;;;;;;;5094508;28;20481;-74
2022/06/24 05:45:49;;;;;;;8.50;1.70;;;;;;;;;;5094633;28;20455;-73
2022/06/24 05:48:16;;;;;;;3.20;1.40;;;;;;;;;;5094752;28;20486;-73
2022/06/24 05:50:43;;;;;;;2.10;1.57;;;;;;;;;;5094688;28;20470;-74
2022/06/24 05:55:59;;;;;;;1.60;1.30;;;;;;;;;;5094977;28;20438;-74
2022/06/24 05:58:26;;;;;;;3.73;1.60;;;;;;;;;;5094678;28;20474;-74
2022/06/24 06:00:54;;;;;;;2.23;1.43;;;;;;;;;;5088399;28;20884;-74
2022/06/24 06:03:21;;;;;;;4.70;1.20;;;;;;;;;;5089700;28;20948;-74
2022/06/24 06:05:48;;;;;;;3.50;2.30;;;;;;;;;;5093071;28;20807;-74
2022/06/24 06:08:16;;;;;;;3.87;1.63;;;;;;;;;;5091732;28;20481;-74
2022/06/24 06:10:43;;;;;;;2.57;1.40;;;;;;;;;;5093205;28;20477;-74
2022/06/24 06:13:12;;;;;;;3.73;1.40;;;;;;;;;;5092336;28;20891;-74
2022/06/24 06:15:40;;;;;;;3.80;1.50;;;;;;;;;;5092612;28;20940;-74
2022/06/24 06:18:07;;;;;;;3.30;1.20;;;;;;;;;;5092331;28;20493;-74
2022/06/24 06:20:35;;;;;;;3.70;1.73;;;;;;;;;;5092912;28;21006;-74
2022/06/24 06:23:02;;;;;;;2.40;1.30;;;;;;;;;;5092716;28;20486;-74
2022/06/24 06:25:29;;;;;;;3.17;1.40;;;;;;;;;;5092376;28;20964;-74
2022/06/24 06:27:56;;;;;;;2.57;1.40;;;;;;;;;;5092786;28;20447;-74
2022/06/24 06:30:24;;;;;;;2.50;1.60;;;;;;;;;;5092257;28;20833;-74
2022/06/24 06:32:53;;;;;;;4.97;1.90;;;;;;;;;;5092745;28;20454;-74
2022/06/24 06:35:20;;;;;;;3.20;2.13;;;;;;;;;;5092206;28;20490;-74
2022/06/24 06:37:47;;;;;;;5.13;2.00;;;;;;;;;;5092650;28;20447;-74
2022/06/24 06:40:14;;;;;;;4.73;1.80;;;;;;;;;;5092419;28;20454;-74
2022/06/24 06:42:41;;;;;;;3.00;1.40;;;;;;;;;;5092757;28;20863;-74
2022/06/24 06:45:08;;;;;;;2.20;1.47;;;;;;;;;;5092163;28;20453;-74
2022/06/24 06:47:37;;;;;;;3.40;1.50;;;;;;;;;;5092544;28;20451;-74
2022/06/24 06:50:05;;;;;;;5.17;1.37;;;;;;;;;;5092330;28;20459;-74
2022/06/24 06:52:33;;;;;;;2.80;1.47;;;;;;;;;;5091780;28;20481;-74
2022/06/24 06:55:02;;;;;;;7.03;2.27;;;;;;;;;;5092035;28;20486;-74
2022/06/24 06:57:29;;;;;;;4.47;3.07;;;;;;;;;;5092243;28;20819;-74
2022/06/24 06:59:56;;;;;;;6.43;2.00;;;;;;;;;;5092430;28;20461;-74
2022/06/24 07:02:23;;;;;;;3.83;1.80;;;;;;;;;;5092169;28;20474;-74
2022/06/24 07:04:51;;;;;;;5.20;1.60;;;;;;;;;;5091913;28;20832;-74
2022/06/24 07:07:18;;;;;;;2.70;1.33;;;;;;;;;;5092001;28;20461;-75
2022/06/24 07:09:46;;;;;;;2.67;1.57;;;;;;;;;;5092122;28;20888;-74
2022/06/24 07:12:13;;;;;;;2.60;1.47;;;;;;;;;;5091816;28;20467;-74
2022/06/24 07:14:41;;;;;;;3.67;1.40;;;;;;;;;;5092182;28;20569;-74
2022/06/24 07:17:09;;;;;;;4.23;1.50;;;;;;;;;;5091935;28;20956;-74
2022/06/24 07:19:36;;;;;;;5.37;1.23;;;;;;;;;;5091977;28;20447;-74
2022/06/24 07:22:05;;;;;;;6.50;1.30;;;;;;;;;;5091766;28;20471;-74
2022/06/24 07:24:32;;;;;;;2.83;1.43;;;;;;;;;;5091743;28;20454;-74
2022/06/24 07:26:59;;;;;;;4.83;1.57;;;;;;;;;;5091901;28;20473;-74
2022/06/24 07:29:26;;;;;;;4.20;1.43;;;;;;;;;;5091713;28;20485;-73
2022/06/24 07:31:53;;;;;;;3.60;1.77;;;;;;;;;;5080313;28;20851;-73
2022/06/24 07:34:21;;;;;;;3.17;1.50;;;;;;;;;;5071245;28;20483;-73
2022/06/24 07:36:48;;;;;;;3.70;1.77;;;;;;;;;;5071755;28;20554;-73
2022/06/24 07:39:16;;;;;;;4.20;1.47;;;;;;;;;;5071309;28;20961;-73
2022/06/24 07:41:43;;;;;;;6.10;1.77;;;;;;;;;;5071667;28;20475;-73
2022/06/24 07:44:10;;;;;;;2.70;1.40;;;;;;;;;;5083179;28;20458;-73
2022/06/24 07:46:38;;;;;;;2.67;1.63;;;;;;;;;;5091559;28;20453;-73
2022/06/24 07:49:05;;;;;;;3.17;1.30;;;;;;;;;;5091470;28;20953;-73
2022/06/24 07:51:32;;;;;;;3.33;1.40;;;;;;;;;;5091439;28;20497;-73
2022/06/24 07:53:59;;;;;;;7.03;1.93;;;;;;;;;;5090805;28;20557;-73
2022/06/24 07:59:12;;;;;;;2.53;1.40;;;;;;;;;;5072330;28;20593;-73
2022/06/24 08:01:39;;;;;;;6.10;3.17;;;;;;;;;;5071808;28;20490;-73
2022/06/24 08:04:08;;;;;;;2.57;1.30;;;;;;;;;;5072334;28;20951;-73
2022/06/24 08:06:36;;;;;;;2.97;1.40;;;;;;;;;;5070049;28;20941;-73
2022/06/24 08:09:03;;;;;;;2.57;1.60;;;;;;;;;;5071088;28;20455;-73
2022/06/24 08:11:31;;;;;;;2.93;1.50;;;;;;;;;;5071030;28;20494;-73
2022/06/24 08:13:59;;;;;;;5.87;1.57;;;;;;;;;;5070917;28;20487;-73
2022/06/24 08:16:26;;;;;;;5.37;1.70;;;;;;;;;;5070631;28;20451;-73
2022/06/24 08:18:54;;;;;;;4.90;1.60;;;;;;;;;;5071329;28;20452;-73
2022/06/24 08:21:22;;;;;;;3.63;1.53;;;;;;;;;;5070903;28;21009;-73
2022/06/24 08:23:49;;;;;;;6.10;2.10;;;;;;;;;;5070813;28;20993;-73
2022/06/24 08:26:17;;;;;;;4.20;1.60;;;;;;;;;;5070829;28;20459;-73
2022/06/24 08:28:45;;;;;;;2.17;1.43;;;;;;;;;;5070877;28;20466;-73
2022/06/24 08:31:13;;;;;;;2.90;1.40;;;;;;;;;;5071613;28;20467;-73
2022/06/24 08:33:40;;;;;;;4.87;2.00;;;;;;;;;;5072232;28;20956;-73
2022/06/24 08:36:07;;;;;;;3.13;1.93;;;;;;;;;;5072101;28;20487;-73
2022/06/24 08:38:34;;;;;;;1.80;1.40;;;;;;;;;;5072331;28;20460;-73
2022/06/24 08:41:02;;;;;;;2.33;1.40;;;;;;;;;;5074924;28;20479;-73
2022/06/24 08:43:31;;;;;;;5.90;2.70;;;;;;;;;;5075707;28;20888;-73
2022/06/24 08:46:00;;;;;;;7.00;2.73;;;;;;;;;;5075863;28;20811;-73
2022/06/24 08:48:27;;;;;;;3.93;1.77;;;;;;;;;;5075681;28;20959;-73
2022/06/24 08:50:54;;;;;;;2.37;1.80;;;;;;;;;;5075401;28;20487;-73
2022/06/24 08:53:23;;;;;;;9.07;2.97;;;;;;;;;;5075413;28;20458;-73
2022/06/24 08:55:51;;;;;;;2.23;1.80;;;;;;;;;;5075616;28;20491;-73
2022/06/24 08:58:19;;;;;;;6.87;1.97;;;;;;;;;;5075647;28;20510;-73
2022/06/24 09:00:46;;;;;;;3.93;1.60;;;;;;;;;;5075010;28;20467;-73
2022/06/24 09:03:15;;;;;;;6.13;1.77;;;;;;;;;;5075642;28;20443;-73
2022/06/24 09:05:42;;;;;;;6.23;2.37;;;;;;;;;;5075393;28;20824;-73
2022/06/24 09:08:10;;;;;;;4.33;2.07;;;;;;;;;;5075480;28;20455;-73
2022/06/24 09:10:38;;;;;;;9.13;2.10;;;;;;;;;;5075496;28;20832;-73
2022/06/24 09:13:05;;;;;;;4.77;2.37;;;;;;;;;;5075261;28;20452;-73
2022/06/24 09:15:33;;;;;;;2.00;1.40;;;;;;;;;;5075351;28;21023;-73
2022/06/24 09:18:02;;;;;;;8.17;2.50;;;;;;;;;;5075195;28;20448;-73
2022/06/24 09:20:32;;;;;;;9.37;2.80;;;;;;;;;;5075312;28;20833;-73
2022/06/24 09:23:06;;;;;;;5.57;1.97;;;;;;;;;;5075485;28;20456;-73
2022/06/24 09:25:43;;;;;;;3.83;1.90;;;;;;;;;;5074828;28;20459;-73
2022/06/24 09:28:11;;;;;;;2.90;1.90;;;;;;;;;;5075125;28;20592;-73
2022/06/24 09:30:38;;;;;;;4.07;1.40;;;;;;;;;;5074907;28;20479;-73
2022/06/24 09:33:06;;;;;;;3.53;1.60;;;;;;;;;;5075058;28;20448;-73
2022/06/24 09:35:37;;;;;;;3.30;1.67;;;;;;;;;;5074779;28;20487;-73
2022/06/24 09:38:04;;;;;;;6.20;1.60;;;;;;;;;;5075102;28;20459;-73
2022/06/24 09:40:32;;;;;;;3.43;1.90;;;;;;;;;;5074875;28;20967;-73
2022/06/24 09:43:00;;;;;;;2.10;1.80;;;;;;;;;;5074754;28;20444;-73
2022/06/24 09:45:28;;;;;;;5.33;2.17;;;;;;;;;;5074549;28;20455;-73
2022/06/24 09:47:58;;;;;;;3.70;2.00;;;;;;;;;;5074702;28;20447;-73
2022/06/24 09:50:25;;;;;;;7.90;1.93;;;;;;;;;;5074442;28;20896;-73
2022/06/24 09:52:54;;;;;;;4.53;2.00;;;;;;;;;;5074057;28;20811;-73
2022/06/24 09:55:23;;;;;;;3.17;2.03;;;;;;;;;;5074329;28;20495;-73
2022/06/24 09:57:51;;;;;;;4.73;2.20;;;;;;;;;;5074426;28;20977;-73
2022/06/24 10:03:04;;;;;;;4.17;2.30;;;;;;;;;;5074604;28;20439;-74
2022/06/24 10:05:33;;;;;;;6.83;2.33;;;;;;;;;;5074147;28;20448;-73
2022/06/24 10:08:01;;;;;;;5.77;2.07;;;;;;;;;;5074495;28;20450;-73
2022/06/24 10:10:29;;;;;;;4.33;1.97;;;;;;;;;;5073980;28;20459;-74
2022/06/24 10:13:00;;;;;;;4.07;2.40;;;;;;;;;;5074238;28;20451;-74
2022/06/24 10:15:28;;;;;;;4.60;2.10;;;;;;;;;;5073836;28;20506;-74
2022/06/24 10:17:56;;;;;;;4.77;1.60;;;;;;;;;;5074189;28;20459;-74
2022/06/24 10:20:24;;;;;;;3.80;2.00;;;;;;;;;;5073858;28;20455;-74
2022/06/24 10:22:51;;;;;;;6.70;3.60;;;;;;;;;;5074025;28;20462;-74
2022/06/24 10:25:23;;;;;;;6.20;2.17;;;;;;;;;;5073619;28;20468;-74
2022/06/24 10:28:07;;;;;;;5.10;1.87;;;;;;;;;;5074009;28;20440;-73
2022/06/24 10:30:52;;;;;;;10.77;1.97;;;;;;;;;;5073930;28;20837;-74
2022/06/24 10:33:21;;;;;;;4.60;2.00;;;;;;;;;;5063743;28;20463;-74
2022/06/24 10:35:57;;;;;;;3.20;1.87;;;;;;;;;;5073563;28;20514;-74
2022/06/24 10:38:25;;;;;;;4.23;1.70;;;;;;;;;;5073811;28;20924;-74
2022/06/24 10:40:53;;;;;;;3.40;1.80;;;;;;;;;;5073680;28;20518;-74
2022/06/24 10:43:40;;;;;;;4.33;2.40;;;;;;;;;;5073531;28;20459;-74
2022/06/24 10:46:16;;;;;;;3.93;1.77;;;;;;;;;;5073656;28;20460;-74
2022/06/24 10:48:58;;;;;;;6.63;2.53;;;;;;;;;;5073588;28;20451;-74
2022/06/24 10:51:28;;;;;;;9.77;2.17;;;;;;;;;;5073342;28;20536;-74
2022/06/24 10:54:10;;;;;;;6.10;1.87;;;;;;;;;;5072952;28;20940;-73
2022/06/24 10:56:40;;;;;;;6.57;2.10;;;;;;;;;;5073436;28;20491;-74
2022/06/24 10:59:07;;;;;;;7.87;1.70;;;;;;;;;;5073685;28;20817;-74
2022/06/24 11:01:34;;;;;;;5.63;1.90;;;;;;;;;;5073334;28;20470;-75
2022/06/24 11:04:02;;;;;;;6.40;2.43;;;;;;;;;;5072516;28;20513;-73
2022/06/24 11:06:29;;;;;;;7.37;2.23;;;;;;;;;;5073096;28;20451;-73
2022/06/24 11:08:57;;;;;;;7.87;2.30;;;;;;;;;;5073383;28;20952;-74
2022/06/24 11:11:30;;;;;;;4.83;2.00;;;;;;;;;;5073158;28;20482;-74
2022/06/24 11:13:59;;;;;;;5.00;1.70;;;;;;;;;;5073026;28;20460;-73
2022/06/24 11:16:28;;;;;;;6.30;2.17;;;;;;;;;;5073370;28;21030;-74
2022/06/24 11:18:55;;;;;;;7.47;2.17;;;;;;;;;;5073146;28;20456;-73
2022/06/24 11:21:22;;;;;;;6.40;2.53;;;;;;;;;;5072952;28;20478;-74
2022/06/24 11:23:50;;;;;;;7.40;1.80;;;;;;;;;;5072786;28;20489;-73
2022/06/24 11:26:18;;;;;;;7.60;2.30;;;;;;;;;;5073073;28;20439;-74
2022/06/24 11:28:50;;;;;;;5.33;1.83;;;;;;;;;;5073180;28;20456;-74
2022/06/24 11:31:19;;;;;;;4.30;2.33;;;;;;;;;;5072753;28;20482;-74
2022/06/24 11:33:47;;;;;;;6.50;2.33;;;;;;;;;;5072753;28;20894;-73
2022/06/24 11:36:15;;;;;;;4.30;1.90;;;;;;;;;;5072797;28;20875;-74
2022/06/24 11:38:52;;;;;;;6.43;1.90;;;;;;;;;;5073017;28;20451;-74
2022/06/24 11:41:24;;;;;;;6.37;2.40;;;;;;;;;;5072970;28;20467;-74
2022/06/24 11:43:51;;;;;;;5.70;2.10;;;;;;;;;;5072560;28;20455;-73
2022/06/24 11:46:20;;;;;;;4.87;2.37;;;;;;;;;;5072954;28;20444;-73
2022/06/24 11:48:47;;;;;;;3.93;2.10;;;;;;;;;;5072825;28;20451;-74
2022/06/24 11:51:20;;;;;;;7.20;2.30;;;;;;;;;;5072570;28;20505;-74
2022/06/24 11:53:57;;;;;;;4.90;2.07;;;;;;;;;;5072323;28;20451;-74
2022/06/24 11:56:27;;;;;;;3.70;2.27;;;;;;;;;;5072781;28;20849;-74
2022/06/24 11:58:54;;;;;;;4.53;2.50;;;;;;;;;;5072434;28;20471;-73
2022/06/24 12:01:23;;;;;;;10.70;2.47;;;;;;;;;;5072540;28;20476;-73
2022/06/24 12:03:50;;;;;;;8.00;4.20;;;;;;;;;;5072619;28;20451;-73
2022/06/24 12:06:18;;;;;;;5.50;2.43;;;;;;;;;;5072585;28;20505;-73
2022/06/24 12:08:46;;;;;;;5.30;2.30;;;;;;;;;;5086200;28;20929;-73
2022/06/24 12:11:17;;;;;;;3.87;2.23;;;;;;;;;;5091798;28;20478;-73
2022/06/24 12:13:44;;;;;;;6.67;3.00;;;;;;;;;;5092695;28;20447;-73
2022/06/24 12:16:11;;;;;;;5.83;2.27;;;;;;;;;;5095777;28;20860;-73
2022/06/24 12:18:40;;;;;;;6.70;2.50;;;;;;;;;;5096632;28;20553;-74
2022/06/24 12:21:08;;;;;;;8.73;2.60;;;;;;;;;;5096304;28;20984;-73
2022/06/24 12:23:36;;;;;;;12.20;7.30;;;;;;;;;;5096139;28;20885;-73
2022/06/24 12:26:07;;;;;;;8.03;3.43;;;;;;;;;;5096260;28;20448;-74
2022/06/24 12:28:34;;;;;;;7.50;4.43;;;;;;;;;;5096561;28;20442;-74
2022/06/24 12:31:03;;;;;;;11.13;2.53;;;;;;;;;;5095650;28;20474;-74
2022/06/24 12:33:30;;;;;;;4.90;2.37;;;;;;;;;;5096321;28;20490;-73
2022/06/24 12:36:10;;;;;;;3.87;2.00;;;;;;;;;;5096131;28;20489;-74
2022/06/24 12:38:41;;;;;;;6.17;2.37;;;;;;;;;;5096354;28;20832;-75
2022/06/24 12:41:09;;;;;;;5.00;1.90;;;;;;;;;;5096240;28;20483;-74
2022/06/24 12:43:37;;;;;;;6.83;2.33;;;;;;;;;;5095973;28;20450;-74
2022/06/24 12:46:04;;;;;;;4.70;1.87;;;;;;;;;;5096258;28;20817;-74
2022/06/24 12:51:24;;;;;;;5.27;2.43;;;;;;;;;;5096001;28;20524;-74
2022/06/24 12:53:52;;;;;;;9.93;2.37;;;;;;;;;;5095430;28;20453;-74
2022/06/24 12:56:20;;;;;;;4.10;2.00;;;;;;;;;;5095853;28;20482;-74
2022/06/24 12:58:48;;;;;;;8.13;2.57;;;;;;;;;;5095932;28;20500;-74
2022/06/24 13:01:15;;;;;;;9.47;5.10;;;;;;;;;;5095698;28;20470;-74
2022/06/24 13:03:42;;;;;;;14.17;3.10;;;;;;;;;;5095809;28;21078;-74
2022/06/24 13:06:09;;;;;;;9.27;1.97;;;;;;;;;;5095776;28;20457;-74
2022/06/24 13:08:37;;;;;;;5.90;2.10;;;;;;;;;;5095789;28;21018;-74
2022/06/24 13:11:05;;;;;;;7.47;1.97;;;;;;;;;;5095521;28;20835;-74
2022/06/24 13:13:32;;;;;;;11.40;2.60;;;;;;;;;;5095440;28;20457;-74
2022/06/24 13:15:59;;;;;;;3.60;2.03;;;;;;;;;;5095506;28;20912;-74
2022/06/24 13:18:27;;;;;;;3.90;1.53;;;;;;;;;;5095605;28;20453;-74
2022/06/24 13:20:54;;;;;;;7.13;1.80;;;;;;;;;;5095436;28;20470;-74
2022/06/24 13:23:21;;;;;;;5.63;2.10;;;;;;;;;;5095353;28;20940;-74
2022/06/24 13:25:50;;;;;;;4.10;2.00;;;;;;;;;;5094714;28;20451;-74
2022/06/24 13:28:17;;;;;;;4.27;2.03;;;;;;;;;;5095262;28;20964;-74
2022/06/24 13:30:44;;;;;;;8.03;3.00;;;;;;;;;;5095289;28;20474;-74
2022/06/24 13:33:11;;;;;;;7.67;2.53;;;;;;;;;;5095124;28;20459;-74
2022/06/24 13:35:38;;;;;;;9.43;2.30;;;;;;;;;;5095027;28;20849;-74
2022/06/24 13:38:06;;;;;;;3.30;2.00;;;;;;;;;;5095363;28;20458;-74
2022/06/24 13:40:33;;;;;;;7.23;2.03;;;;;;;;;;5094850;28;20454;-74
2022/06/24 13:43:02;;;;;;;2.50;2.07;;;;;;;;;;5095003;28;20451;-74
2022/06/24 13:45:29;;;;;;;5.83;2.17;;;;;;;;;;5094662;28;20471;-74
2022/06/24 13:47:57;;;;;;;4.80;2.43;;;;;;;;;;5094901;28;20450;-74
2022/06/24 13:50:24;;;;;;;3.07;1.87;;;;;;;;;;5094833;28;20461;-74
2022/06/24 13:52:51;;;;;;;6.60;2.07;;;;;;;;;;5094474;28;20447;-74
2022/06/24 13:55:18;;;;;;;6.00;2.00;;;;;;;;;;5094615;28;20462;-74
2022/06/24 13:57:46;;;;;;;4.90;1.60;;;;;;;;;;5094882;28;20494;-74
2022/06/24 14:00:14;;;;;;;4.43;1.90;;;;;;;;;;5094609;28;20460;-74
2022/06/24 14:02:42;;;;;;;4.80;2.40;;;;;;;;;;5094749;28;20451;-74
2022/06/24 14:05:09;;;;;;;4.47;2.30;;;;;;;;;;5094420;28;20484;-74
2022/06/24 14:07:36;;;;;;;9.53;4.23;;;;;;;;;;5094383;28;20446;-74
2022/06/24 14:10:04;;;;;;;4.53;3.50;;;;;;;;;;5094737;28;20465;-74
2022/06/24 14:12:31;;;;;;;4.83;2.07;;;;;;;;;;5094668;28;20842;-74
2022/06/24 14:14:58;;;;;;;5.93;2.40;;;;;;;;;;5094650;28;20459;-74
2022/06/24 14:17:27;;;;;;;3.53;1.57;;;;;;;;;;5094308;28;20494;-74
2022/06/24 14:19:54;;;;;;;3.80;1.60;;;;;;;;;;5094424;28;20958;-74
2022/06/24 14:22:21;;;;;;;3.13;1.43;;;;;;;;;;5094482;28;20478;-74
2022/06/24 14:24:47;;;;;;;4.70;1.67;;;;;;;;;;5094072;28;20454;-74
2022/06/24 14:27:14;;;;;;;4.13;2.03;;;;;;;;;;5094136;28;20447;-74
2022/06/24 14:29:41;;;;;;;6.67;2.40;;;;;;;;;;5094377;28;20451;-74
2022/06/24 14:32:09;;;;;;;5.67;2.73;;;;;;;;;;5094078;28;20478;-74
2022/06/24 14:34:38;;;;;;;6.20;2.30;;;;;;;;;;5093959;28;20538;-74
2022/06/24 14:40:10;;;;;;;9.00;2.20;;;;;;;;;;5093086;28;21022;-74
2022/06/24 14:40:11;;;;;;;5.00;2.50;;;;;;;;;;5094039;28;20536;-74
2022/06/24 14:42:38;;;;;;;2.40;1.93;;;;;;;;;;5094088;28;20869;-74
2022/06/24 14:45:06;;;;;;;4.77;2.00;;;;;;;;;;5093655;28;20455;-74
2022/06/24 14:47:33;;;;;;;11.80;2.73;;;;;;;;;;5093767;28;20446;-74
2022/06/24 14:50:01;;;;;;;4.53;2.23;;;;;;;;;;5093748;28;20948;-74
2022/06/24 14:52:28;;;;;;;6.57;2.00;;;;;;;;;;5093252;28;20479;-74
2022/06/24 14:54:56;;;;;;;5.00;2.07;;;;;;;;;;5093635;28;20822;-74
2022/06/24 14:57:23;;;;;;;4.57;1.87;;;;;;;;;;5093453;28;20490;-74
2022/06/24 14:59:50;;;;;;;4.90;2.07;;;;;;;;;;5093547;28;20466;-74
2022/06/24 15:02:17;;;;;;;3.53;1.90;;;;;;;;;;5093456;28;20477;-74
2022/06/24 15:04:44;;;;;;;3.20;2.13;;;;;;;;;;5093494;28;20916;-74